createdAt,value
2018-11-28T00:02:01.942Z,0.70
2018-11-28T00:06:09.402Z,0.70
2018-11-28T00:10:16.928Z,0.80
2018-11-28T00:14:25.017Z,0.70
2018-11-28T00:18:31.635Z,0.60
2018-11-28T00:22:38.252Z,0.70
2018-11-28T00:26:44.713Z,1.00
2018-11-28T00:30:53.024Z,1.10
2018-11-28T00:34:59.511Z,1.30
2018-11-28T00:39:08.377Z,1.20
2018-11-28T00:43:15.239Z,1.30
2018-11-28T00:47:22.901Z,1.50
2018-11-28T00:51:29.428Z,1.70
2018-11-28T00:55:36.116Z,2.00
2018-11-28T00:59:42.578Z,1.90
2018-11-28T01:03:50.052Z,2.10
2018-11-28T01:07:57.734Z,2.10
2018-11-28T01:12:04.465Z,2.00
2018-11-28T01:16:10.976Z,2.00
2018-11-28T01:20:24.613Z,1.70
2018-11-28T01:24:31.182Z,1.80
2018-11-28T01:28:37.923Z,1.90
2018-11-28T01:32:44.693Z,2.00
2018-11-28T01:36:51.871Z,2.00
2018-11-28T01:40:59.305Z,2.10
2018-11-28T01:45:05.975Z,2.20
2018-11-28T01:49:12.456Z,2.30
2018-11-28T01:53:20.140Z,2.40
2018-11-28T01:57:26.560Z,2.40
2018-11-28T02:01:33.139Z,2.30
2018-11-28T02:05:39.649Z,2.20
2018-11-28T02:09:47.419Z,2.00
2018-11-28T02:13:53.945Z,2.00
2018-11-28T02:18:02.931Z,1.90
2018-11-28T02:22:09.895Z,2.00
2018-11-28T02:26:16.837Z,2.10
2018-11-28T02:30:23.335Z,2.00
2018-11-28T02:34:30.848Z,1.90
2018-11-28T02:38:37.616Z,1.80
2018-11-28T02:42:47.806Z,1.70
2018-11-28T02:46:54.319Z,1.60
2018-11-28T02:51:02.709Z,1.60
2018-11-28T02:55:13.356Z,1.60
2018-11-28T02:59:21.075Z,1.40
2018-11-28T03:03:27.502Z,1.50
2018-11-28T03:07:34.225Z,1.20
2018-11-28T03:11:43.118Z,1.10
2018-11-28T03:15:52.076Z,1.00
2018-11-28T03:19:58.557Z,0.70
2018-11-28T03:24:08.429Z,0.50
2018-11-28T03:28:17.807Z,0.70
2018-11-28T03:32:24.984Z,0.60
2018-11-28T03:36:31.460Z,0.60
2018-11-28T03:40:38.080Z,0.70
2018-11-28T03:44:44.684Z,0.60
2018-11-28T03:48:52.607Z,0.40
2018-11-28T03:52:59.104Z,3.00
2018-11-28T03:57:05.669Z,0.50
2018-11-28T04:01:12.170Z,0.30
2018-11-28T04:05:18.944Z,0.40
2018-11-28T04:09:25.608Z,0.30
2018-11-28T04:13:32.179Z,0.30
2018-11-28T04:17:40.044Z,0.30
2018-11-28T04:21:46.489Z,0.30
2018-11-28T04:25:53.100Z,0.10
2018-11-28T04:29:59.665Z,0.20
2018-11-28T04:34:06.476Z,0.20
2018-11-28T04:38:17.126Z,0.20
2018-11-28T04:42:23.653Z,0.20
2018-11-28T04:46:30.510Z,0.30
2018-11-28T04:50:37.892Z,0.20
2018-11-28T04:54:46.232Z,0.20
2018-11-28T04:58:52.731Z,0.10
2018-11-28T05:03:01.153Z,0.10
2018-11-28T05:07:29.616Z,0.00
2018-11-28T05:11:36.746Z,-0.10
2018-11-28T05:15:43.275Z,0.00
2018-11-28T05:19:49.936Z,0.00
2018-11-28T05:23:59.163Z,0.00
2018-11-28T05:28:07.442Z,0.10
2018-11-28T05:32:15.773Z,0.10
2018-11-28T05:36:22.293Z,0.00
2018-11-28T05:40:29.418Z,-0.10
2018-11-28T05:44:36.508Z,0.10
2018-11-28T05:48:44.236Z,0.00
2018-11-28T05:52:53.442Z,0.00
2018-11-28T05:56:59.934Z,-0.20
2018-11-28T06:01:09.415Z,-0.40
2018-11-28T06:05:16.729Z,-0.50
2018-11-28T06:09:23.306Z,-0.60
2018-11-28T06:13:29.785Z,-0.60
2018-11-28T06:17:38.608Z,-0.60
2018-11-28T06:21:45.157Z,-0.60
2018-11-28T06:25:51.857Z,-0.50
2018-11-28T06:29:58.363Z,-0.50
2018-11-28T06:34:06.960Z,-0.50
2018-11-28T06:38:13.588Z,-0.50
2018-11-28T06:42:22.912Z,-0.40
2018-11-28T06:46:29.409Z,-0.40
2018-11-28T06:50:36.976Z,-0.20
2018-11-28T06:54:43.394Z,-0.10
2018-11-28T06:58:50.182Z,0.10
2018-11-28T07:02:56.809Z,0.00
2018-11-28T07:07:04.183Z,0.10
2018-11-28T07:11:19.953Z,0.20
2018-11-28T07:15:27.155Z,0.40
2018-11-28T07:19:33.636Z,0.50
2018-11-28T07:23:44.705Z,0.60
2018-11-28T07:27:53.351Z,0.70
2018-11-28T07:31:59.959Z,0.70
2018-11-28T07:36:06.442Z,0.80
2018-11-28T07:40:28.281Z,0.50
2018-11-28T07:44:34.785Z,0.40
2018-11-28T07:48:41.373Z,0.50
2018-11-28T07:52:47.883Z,0.60
2018-11-28T07:56:55.040Z,0.80
2018-11-28T08:01:01.494Z,0.80
2018-11-28T08:05:09.858Z,0.80
2018-11-28T08:13:26.375Z,1.10
2018-11-28T08:17:32.513Z,1.20
2018-11-28T08:21:39.477Z,1.30
2018-11-28T08:25:45.994Z,1.40
2018-11-28T08:29:52.690Z,1.40
2018-11-28T08:33:59.254Z,1.50
2018-11-28T08:38:07.687Z,1.50
2018-11-28T08:42:16.761Z,1.60
2018-11-28T08:46:24.626Z,1.80
2018-11-28T08:50:33.662Z,1.60
2018-11-28T08:54:38.716Z,1.60
2018-11-28T08:58:45.251Z,1.70
2018-11-28T09:02:56.539Z,1.70
2018-11-28T09:07:03.187Z,1.60
2018-11-28T09:11:09.958Z,1.40
2018-11-28T09:15:31.609Z,0.50
2018-11-28T09:19:39.680Z,1.60
2018-11-28T09:23:46.361Z,1.50
2018-11-28T09:28:02.571Z,1.80
2018-11-28T09:32:09.044Z,2.00
2018-11-28T09:36:17.046Z,2.10
2018-11-28T09:40:24.609Z,1.90
2018-11-28T09:44:35.659Z,1.90
2018-11-28T09:48:42.152Z,1.80
2018-11-28T09:52:50.215Z,2.40
2018-11-28T09:56:56.537Z,2.40
2018-11-28T10:01:03.199Z,2.60
2018-11-28T10:05:11.193Z,5.20
2018-11-28T10:09:18.707Z,2.70
2018-11-28T10:13:25.178Z,2.40
2018-11-28T10:17:31.934Z,2.50
2018-11-28T10:21:39.248Z,2.50
2018-11-28T10:25:47.828Z,2.70
2018-11-28T10:29:54.295Z,3.00
2018-11-28T10:34:00.848Z,3.00
2018-11-28T10:38:08.044Z,2.90
2018-11-28T10:42:15.153Z,2.70
2018-11-28T10:46:21.633Z,2.60
2018-11-28T10:50:30.352Z,2.40
2018-11-28T10:54:36.804Z,2.40
2018-11-28T10:58:44.432Z,2.30
2018-11-28T11:03:08.062Z,2.40
2018-11-28T11:07:31.826Z,2.20
2018-11-28T11:12:02.853Z,2.30
2018-11-28T11:16:10.628Z,2.50
2018-11-28T11:20:19.656Z,2.80
2018-11-28T11:24:27.710Z,2.80
2018-11-28T11:28:34.284Z,2.80
2018-11-28T11:32:41.715Z,3.00
2018-11-28T11:36:48.182Z,3.20
2018-11-28T11:40:56.229Z,3.00
2018-11-28T11:45:04.887Z,3.10
2018-11-28T11:49:11.740Z,2.80
2018-11-28T11:53:19.583Z,2.80
2018-11-28T11:57:26.543Z,3.00
2018-11-28T12:01:33.028Z,3.10
2018-11-28T12:05:43.537Z,3.20
2018-11-28T12:09:50.855Z,3.10
2018-11-28T12:13:57.400Z,3.00
2018-11-28T12:18:03.921Z,3.50
2018-11-28T12:22:11.416Z,3.20
2018-11-28T12:26:17.934Z,3.10
2018-11-28T12:30:24.654Z,3.20
2018-11-28T12:34:31.156Z,3.20
2018-11-28T12:38:39.512Z,3.30
2018-11-28T12:42:50.573Z,3.20
2018-11-28T12:47:00.279Z,2.90
2018-11-28T12:51:07.088Z,2.60
2018-11-28T12:55:15.592Z,2.60
2018-11-28T12:59:22.116Z,2.50
2018-11-28T13:03:28.962Z,2.60
2018-11-28T13:07:35.403Z,2.50
2018-11-28T13:11:43.193Z,2.50
2018-11-28T13:15:49.691Z,2.60
2018-11-28T13:19:58.998Z,2.70
2018-11-28T13:24:03.716Z,2.70
2018-11-28T13:28:11.206Z,2.70
2018-11-28T13:32:17.822Z,3.00
2018-11-28T13:36:24.540Z,3.20
2018-11-28T13:40:30.972Z,3.30
2018-11-28T13:44:37.659Z,3.40
2018-11-28T13:48:44.095Z,3.30
2018-11-28T13:52:53.274Z,3.00
2018-11-28T13:57:03.886Z,2.40
2018-11-28T14:01:09.659Z,2.00
2018-11-28T14:05:16.280Z,1.80
2018-11-28T14:09:23.065Z,1.80
2018-11-28T14:13:29.527Z,1.80
2018-11-28T14:17:36.794Z,1.80
2018-11-28T14:21:43.310Z,1.70
2018-11-28T14:25:52.758Z,1.70
2018-11-28T14:29:57.574Z,1.80
2018-11-28T14:34:04.424Z,1.80
2018-11-28T14:38:10.992Z,1.70
2018-11-28T14:42:25.111Z,1.50
2018-11-28T14:46:31.664Z,1.30
2018-11-28T14:50:39.266Z,1.10
2018-11-28T14:54:46.573Z,0.80
2018-11-28T14:58:56.261Z,0.70
2018-11-28T15:03:18.913Z,0.60
2018-11-28T15:07:27.156Z,0.50
2018-11-28T15:11:33.743Z,0.50
2018-11-28T15:15:40.623Z,0.60
2018-11-28T15:19:47.145Z,0.50
2018-11-28T15:23:54.474Z,0.40
2018-11-28T15:28:02.618Z,0.30
2018-11-28T15:32:09.629Z,0.10
2018-11-28T15:36:17.931Z,0.10
2018-11-28T15:40:25.687Z,0.10
2018-11-28T15:44:32.092Z,0.10
2018-11-28T15:48:39.798Z,0.00
2018-11-28T15:52:46.383Z,-0.10
2018-11-28T15:56:54.938Z,0.30
2018-11-28T16:01:01.529Z,-0.30
2018-11-28T16:05:11.494Z,-0.30
2018-11-28T16:09:35.768Z,-0.40
2018-11-28T16:13:43.541Z,-0.70
2018-11-28T16:17:50.107Z,-0.90
2018-11-28T16:21:57.092Z,-1.10
2018-11-28T16:26:04.053Z,-1.40
2018-11-28T16:30:13.760Z,-1.60
2018-11-28T16:34:23.164Z,-1.70
2018-11-28T16:38:30.023Z,-1.90
2018-11-28T16:42:36.938Z,-1.90
2018-11-28T16:46:43.726Z,-2.10
2018-11-28T16:50:50.408Z,-2.30
2018-11-28T16:54:57.279Z,-2.40
2018-11-28T16:59:04.635Z,-2.50
2018-11-28T17:03:11.421Z,-2.30
2018-11-28T17:07:18.056Z,-2.40
2018-11-28T17:11:25.144Z,-2.20
2018-11-28T17:15:34.501Z,-2.20
2018-11-28T17:19:41.448Z,-2.20
2018-11-28T17:23:47.875Z,-2.10
2018-11-28T17:27:54.672Z,-2.00
2018-11-28T17:32:01.479Z,-1.90
2018-11-28T17:36:12.696Z,-1.40
2018-11-28T17:40:22.678Z,-1.80
2018-11-28T17:44:30.204Z,-1.80
2018-11-28T17:48:36.810Z,-1.70
2018-11-28T17:52:46.593Z,-1.90
2018-11-28T17:56:53.073Z,-1.70
2018-11-28T18:00:59.954Z,-1.80
2018-11-28T18:05:10.030Z,-1.90
2018-11-28T18:09:17.784Z,-1.90
2018-11-28T18:13:24.352Z,-5.10
2018-11-28T18:17:32.023Z,-1.70
2018-11-28T18:21:38.777Z,-1.40
2018-11-28T18:25:46.924Z,-1.50
2018-11-28T18:29:53.474Z,-1.40
2018-11-28T18:34:00.427Z,-1.30
2018-11-28T18:38:08.798Z,-1.30
2018-11-28T18:42:16.849Z,-1.30
2018-11-28T18:46:30.842Z,-1.20
2018-11-28T18:50:40.003Z,-1.20
2018-11-28T18:54:46.882Z,-1.10
2018-11-28T18:58:54.274Z,-1.40
2018-11-28T19:03:00.829Z,-1.40
2018-11-28T19:07:08.082Z,-1.30
2018-11-28T19:11:19.975Z,-1.30
2018-11-28T19:15:33.760Z,-1.30
2018-11-28T19:19:41.592Z,-1.50
2018-11-28T19:23:48.316Z,-1.50
2018-11-28T19:27:55.472Z,-1.60
2018-11-28T19:32:03.279Z,-1.60
2018-11-28T19:36:09.871Z,-1.40
2018-11-28T19:40:54.360Z,-1.40
2018-11-28T19:45:00.845Z,-1.40
2018-11-28T19:49:08.522Z,-1.40
2018-11-28T19:53:15.890Z,-1.30
2018-11-28T19:57:26.382Z,-1.20
2018-11-28T20:01:36.115Z,-1.20
2018-11-28T20:05:46.573Z,-1.20
2018-11-28T20:09:58.336Z,-1.20
2018-11-28T20:14:05.493Z,-1.20
2018-11-28T20:18:12.765Z,-1.30
2018-11-28T20:22:26.973Z,-1.30
2018-11-28T20:26:33.962Z,-1.40
2018-11-28T20:30:49.947Z,-1.40
2018-11-28T20:34:56.551Z,-1.40
2018-11-28T20:39:04.850Z,-1.40
2018-11-28T20:43:12.504Z,-1.50
2018-11-28T20:47:20.121Z,-1.60
2018-11-28T20:51:26.659Z,-1.70
2018-11-28T20:55:34.961Z,-1.70
2018-11-28T20:59:41.775Z,-1.50
2018-11-28T21:03:52.201Z,-1.70
2018-11-28T21:07:59.513Z,-1.60
2018-11-28T21:12:08.746Z,-1.60
2018-11-28T21:16:15.391Z,-1.80
2018-11-28T21:20:24.657Z,-1.80
2018-11-28T21:24:31.049Z,-1.80
2018-11-28T21:28:38.180Z,-1.70
2018-11-28T21:32:50.527Z,-1.70
2018-11-28T21:36:58.198Z,-1.70
2018-11-28T21:41:04.926Z,-1.60
2018-11-28T21:45:15.605Z,-1.60
2018-11-28T21:49:22.111Z,-1.60
2018-11-28T21:53:28.825Z,-1.70
2018-11-28T21:57:35.665Z,-1.70
2018-11-28T22:01:42.979Z,-1.70
2018-11-28T22:05:49.473Z,-1.80
2018-11-28T22:09:56.589Z,-1.70
2018-11-28T22:14:03.053Z,-1.70
2018-11-28T22:18:10.745Z,-1.60
2018-11-28T22:22:17.212Z,-1.50
2018-11-28T22:26:26.583Z,-1.60
2018-11-28T22:30:34.444Z,-1.70
2018-11-28T22:34:42.597Z,-1.70
2018-11-28T22:38:51.513Z,-1.80
2018-11-28T22:43:00.360Z,-1.80
2018-11-28T22:47:07.016Z,-1.80
2018-11-28T22:51:15.970Z,-2.00
2018-11-28T22:55:22.502Z,-2.20
2018-11-28T22:59:32.167Z,-2.10
2018-11-28T23:03:38.618Z,-2.00
2018-11-28T23:07:46.087Z,-2.20
2018-11-28T23:11:53.519Z,-2.10
2018-11-28T23:16:00.193Z,-2.10
2018-11-28T23:20:08.686Z,-2.10
2018-11-28T23:24:16.213Z,-1.90
2018-11-28T23:29:02.881Z,-2.10
2018-11-28T23:33:10.267Z,-2.00
2018-11-28T23:37:18.930Z,-2.20
2018-11-28T23:41:29.645Z,-2.00
2018-11-28T23:45:35.654Z,-2.10
2018-11-28T23:49:42.314Z,-2.40
2018-11-28T23:53:51.241Z,-2.30
2018-11-28T23:57:58.204Z,-1.50
